Startpagina
METAR-TAF:

METAR-TAF

Vliegvelden :

Vliegbasis Kleine-Brogel

Peer, België

breedte: 51-10N, lengte: 005-28E, hoogte: 55 m

Actueel weer

Dit bericht is 42 minuten geleden gemaakt, om 20:25 UTC
Wind 5 kt uit het westen
Temperatuur 7°C
Vochtigheid 81%
Druk 1022 hPa
Zicht 10 km of meer

METAR: EBBL 232025Z AUTO 26005KT 9999 FEW039/// OVC150/// 07/04 Q1022 BLU

Tijdstip: 22:07 (21:07 UTC)


TAF: ontbreekt

Waarnemingen en weersverwachtingen van meer dan 4000 vliegvelden (METAR en TAF).

De beschikbare stations zijn de gele en rode punten op de kaart.

Ga met uw muis naar het station om de naam te zien.

Klik dan om waarnemingen en weersverwachtingen te zien.

kaart wijzigen: klik op de groene knoppen met een zwart kruis om in te zoomen, op de groene knop met een streepje om uit te zoomen of op de groene pijlen voor aangrenzende kaarten.


METAR-TAF: